TAF KTCC
KTCC 081741Z 0818/0918 25010KT P6SM BKN250 FM081900 25015G25KT P6SM BKN250 FM082100 25019G27KT P6SM SCT250 FM091000 25015G24KT P6SM SKC=
METAR KTCC
WC KTCC
WS KTCC
WV KTCC